New Orleans, Louisiana
Traffic Map
Current Weather Conditions
New Orleans, Louisiana
Clear
Clear
68°
Feels Like: 68°
Wind Chill: 68° Ceiling: Unl
Heat Index: 68° Visibility: 10mi
Dew Point: 66° Wind: 9mph
Humidity: 93% Direction: 30° (NNE)
Pressure: 29.94in Gusts: 0mph
Raw Report DataKNEW 020753Z AUTO 03008KT 10SM CLR 20/19 A2994 RMK AO2 SLP131 T02000189 $
Traffic Incident Summary
Active as of:
Severity:
Category:
InformationThere was an issue retrieving the traffic information for this location. Please try a different location or try again shortly.
Advertisements
Track Severe Weather on mobile